sensor_id;sensor_type;location;lat;lon;timestamp;P1;durP1;ratioP1;P2;durP2;ratioP2
3427;SDS011;1727;42.624;23.406;2023-05-08T00:02:05;6.00;;;4.40;;
3427;SDS011;1727;42.624;23.406;2023-05-08T00:04:32;8.40;;;4.40;;
3427;SDS011;1727;42.624;23.406;2023-05-08T00:07:00;4.50;;;4.07;;
3427;SDS011;1727;42.624;23.406;2023-05-08T00:09:27;10.27;;;4.33;;
3427;SDS011;1727;42.624;23.406;2023-05-08T00:11:53;6.30;;;4.53;;
3427;SDS011;1727;42.624;23.406;2023-05-08T00:14:20;5.93;;;5.33;;
3427;SDS011;1727;42.624;23.406;2023-05-08T00:16:47;10.50;;;5.03;;
3427;SDS011;1727;42.624;23.406;2023-05-08T00:19:14;4.90;;;4.43;;
3427;SDS011;1727;42.624;23.406;2023-05-08T00:21:40;5.20;;;4.73;;
3427;SDS011;1727;42.624;23.406;2023-05-08T00:24:09;9.80;;;5.20;;
3427;SDS011;1727;42.624;23.406;2023-05-08T00:26:35;8.20;;;6.00;;
3427;SDS011;1727;42.624;23.406;2023-05-08T00:29:02;6.63;;;5.53;;
3427;SDS011;1727;42.624;23.406;2023-05-08T00:31:29;8.50;;;5.33;;
3427;SDS011;1727;42.624;23.406;2023-05-08T00:33:55;5.63;;;5.00;;
3427;SDS011;1727;42.624;23.406;2023-05-08T00:36:22;5.00;;;4.60;;
3427;SDS011;1727;42.624;23.406;2023-05-08T00:38:50;7.30;;;4.50;;
3427;SDS011;1727;42.624;23.406;2023-05-08T00:41:18;7.17;;;4.67;;
3427;SDS011;1727;42.624;23.406;2023-05-08T00:43:45;5.87;;;4.83;;
3427;SDS011;1727;42.624;23.406;2023-05-08T00:46:11;9.83;;;4.77;;
3427;SDS011;1727;42.624;23.406;2023-05-08T00:48:38;5.27;;;4.77;;
3427;SDS011;1727;42.624;23.406;2023-05-08T00:51:06;5.87;;;4.87;;
3427;SDS011;1727;42.624;23.406;2023-05-08T00:53:36;6.10;;;5.50;;
3427;SDS011;1727;42.624;23.406;2023-05-08T00:56:07;6.00;;;5.47;;
3427;SDS011;1727;42.624;23.406;2023-05-08T00:58:37;12.80;;;5.43;;
3427;SDS011;1727;42.624;23.406;2023-05-08T01:01:05;9.97;;;5.70;;
3427;SDS011;1727;42.624;23.406;2023-05-08T01:03:32;4.97;;;4.50;;
3427;SDS011;1727;42.624;23.406;2023-05-08T01:06:01;5.20;;;4.33;;
3427;SDS011;1727;42.624;23.406;2023-05-08T01:08:29;6.00;;;4.87;;
3427;SDS011;1727;42.624;23.406;2023-05-08T01:10:57;5.70;;;5.20;;
3427;SDS011;1727;42.624;23.406;2023-05-08T01:13:35;4.63;;;4.23;;
3427;SDS011;1727;42.624;23.406;2023-05-08T01:16:15;4.47;;;4.03;;
3427;SDS011;1727;42.624;23.406;2023-05-08T01:18:46;6.50;;;5.63;;
3427;SDS011;1727;42.624;23.406;2023-05-08T01:21:21;6.30;;;5.70;;
3427;SDS011;1727;42.624;23.406;2023-05-08T01:24:18;4.90;;;4.40;;
3427;SDS011;1727;42.624;23.406;2023-05-08T01:30:06;8.93;;;5.47;;
3427;SDS011;1727;42.624;23.406;2023-05-08T01:33:01;4.90;;;4.40;;
3427;SDS011;1727;42.624;23.406;2023-05-08T01:35:43;5.87;;;4.77;;
3427;SDS011;1727;42.624;23.406;2023-05-08T01:38:14;4.70;;;4.10;;
3427;SDS011;1727;42.624;23.406;2023-05-08T01:40:46;5.43;;;5.03;;
3427;SDS011;1727;42.624;23.406;2023-05-08T01:43:20;14.83;;;4.93;;
3427;SDS011;1727;42.624;23.406;2023-05-08T01:45:51;6.67;;;5.10;;
3427;SDS011;1727;42.624;23.406;2023-05-08T01:48:23;6.17;;;5.10;;
3427;SDS011;1727;42.624;23.406;2023-05-08T01:50:57;6.00;;;4.93;;
3427;SDS011;1727;42.624;23.406;2023-05-08T01:53:33;4.90;;;4.43;;
3427;SDS011;1727;42.624;23.406;2023-05-08T01:56:04;6.90;;;5.20;;
3427;SDS011;1727;42.624;23.406;2023-05-08T01:58:35;6.63;;;5.23;;
3427;SDS011;1727;42.624;23.406;2023-05-08T02:01:03;8.93;;;5.00;;
3427;SDS011;1727;42.624;23.406;2023-05-08T02:03:35;7.10;;;4.50;;
3427;SDS011;1727;42.624;23.406;2023-05-08T02:06:05;4.97;;;4.40;;
3427;SDS011;1727;42.624;23.406;2023-05-08T02:08:34;7.37;;;4.87;;
3427;SDS011;1727;42.624;23.406;2023-05-08T02:11:02;9.53;;;4.50;;
3427;SDS011;1727;42.624;23.406;2023-05-08T02:13:33;7.20;;;4.50;;
3427;SDS011;1727;42.624;23.406;2023-05-08T02:16:02;5.67;;;4.90;;
3427;SDS011;1727;42.624;23.406;2023-05-08T02:18:33;5.37;;;4.87;;
3427;SDS011;1727;42.624;23.406;2023-05-08T02:21:04;5.57;;;4.50;;
3427;SDS011;1727;42.624;23.406;2023-05-08T02:23:36;5.77;;;4.43;;
3427;SDS011;1727;42.624;23.406;2023-05-08T02:26:03;4.70;;;4.30;;
3427;SDS011;1727;42.624;23.406;2023-05-08T02:28:31;8.77;;;5.60;;
3427;SDS011;1727;42.624;23.406;2023-05-08T02:30:58;6.80;;;5.33;;
3427;SDS011;1727;42.624;23.406;2023-05-08T02:33:26;5.67;;;5.17;;
3427;SDS011;1727;42.624;23.406;2023-05-08T02:35:56;6.50;;;5.60;;
3427;SDS011;1727;42.624;23.406;2023-05-08T02:38:25;7.60;;;5.60;;
3427;SDS011;1727;42.624;23.406;2023-05-08T02:40:53;13.53;;;6.50;;
3427;SDS011;1727;42.624;23.406;2023-05-08T02:43:22;7.13;;;6.07;;
3427;SDS011;1727;42.624;23.406;2023-05-08T02:45:51;7.93;;;6.00;;
3427;SDS011;1727;42.624;23.406;2023-05-08T02:48:32;7.83;;;5.80;;
3427;SDS011;1727;42.624;23.406;2023-05-08T02:51:09;6.90;;;5.03;;
3427;SDS011;1727;42.624;23.406;2023-05-08T02:53:44;9.93;;;4.80;;
3427;SDS011;1727;42.624;23.406;2023-05-08T02:56:17;5.30;;;4.80;;
3427;SDS011;1727;42.624;23.406;2023-05-08T02:58:51;9.43;;;4.83;;
3427;SDS011;1727;42.624;23.406;2023-05-08T03:01:24;6.20;;;5.50;;
3427;SDS011;1727;42.624;23.406;2023-05-08T03:03:57;7.87;;;5.33;;
3427;SDS011;1727;42.624;23.406;2023-05-08T03:06:30;8.27;;;5.43;;
3427;SDS011;1727;42.624;23.406;2023-05-08T03:09:02;5.97;;;4.60;;
3427;SDS011;1727;42.624;23.406;2023-05-08T03:17:41;6.17;;;4.20;;
3427;SDS011;1727;42.624;23.406;2023-05-08T03:20:10;5.50;;;4.53;;
3427;SDS011;1727;42.624;23.406;2023-05-08T03:22:41;7.43;;;5.50;;
3427;SDS011;1727;42.624;23.406;2023-05-08T03:25:09;5.83;;;5.23;;
3427;SDS011;1727;42.624;23.406;2023-05-08T03:27:38;5.77;;;5.20;;
3427;SDS011;1727;42.624;23.406;2023-05-08T03:30:06;5.90;;;4.90;;
3427;SDS011;1727;42.624;23.406;2023-05-08T03:32:35;6.50;;;5.43;;
3427;SDS011;1727;42.624;23.406;2023-05-08T03:35:04;8.00;;;5.70;;
3427;SDS011;1727;42.624;23.406;2023-05-08T03:37:32;9.47;;;5.10;;
3427;SDS011;1727;42.624;23.406;2023-05-08T03:40:00;8.87;;;6.10;;
3427;SDS011;1727;42.624;23.406;2023-05-08T03:42:27;6.67;;;5.97;;
3427;SDS011;1727;42.624;23.406;2023-05-08T03:44:56;6.50;;;5.47;;
3427;SDS011;1727;42.624;23.406;2023-05-08T03:47:24;6.90;;;6.10;;
3427;SDS011;1727;42.624;23.406;2023-05-08T03:49:52;6.30;;;4.63;;
3427;SDS011;1727;42.624;23.406;2023-05-08T03:52:19;9.00;;;5.53;;
3427;SDS011;1727;42.624;23.406;2023-05-08T03:54:46;9.17;;;5.60;;
3427;SDS011;1727;42.624;23.406;2023-05-08T03:57:14;10.03;;;5.57;;
3427;SDS011;1727;42.624;23.406;2023-05-08T03:59:43;6.13;;;5.53;;
3427;SDS011;1727;42.624;23.406;2023-05-08T04:02:18;6.80;;;5.40;;
3427;SDS011;1727;42.624;23.406;2023-05-08T04:04:51;6.50;;;5.87;;
3427;SDS011;1727;42.624;23.406;2023-05-08T04:07:27;6.23;;;5.63;;
3427;SDS011;1727;42.624;23.406;2023-05-08T04:10:02;5.33;;;4.83;;
3427;SDS011;1727;42.624;23.406;2023-05-08T04:12:37;5.77;;;5.23;;
3427;SDS011;1727;42.624;23.406;2023-05-08T04:15:09;9.83;;;6.00;;
3427;SDS011;1727;42.624;23.406;2023-05-08T04:17:44;9.43;;;6.67;;
3427;SDS011;1727;42.624;23.406;2023-05-08T04:20:17;8.50;;;5.47;;
3427;SDS011;1727;42.624;23.406;2023-05-08T04:22:46;6.50;;;4.90;;
3427;SDS011;1727;42.624;23.406;2023-05-08T04:25:16;9.20;;;5.67;;
3427;SDS011;1727;42.624;23.406;2023-05-08T04:27:46;9.07;;;4.27;;
3427;SDS011;1727;42.624;23.406;2023-05-08T04:30:15;6.03;;;5.40;;
3427;SDS011;1727;42.624;23.406;2023-05-08T04:32:42;6.63;;;5.47;;
3427;SDS011;1727;42.624;23.406;2023-05-08T04:35:10;9.50;;;5.43;;
3427;SDS011;1727;42.624;23.406;2023-05-08T04:37:37;7.10;;;5.30;;
3427;SDS011;1727;42.624;23.406;2023-05-08T04:40:04;6.43;;;5.83;;
3427;SDS011;1727;42.624;23.406;2023-05-08T04:42:32;6.30;;;5.67;;
3427;SDS011;1727;42.624;23.406;2023-05-08T04:45:02;8.97;;;5.50;;
3427;SDS011;1727;42.624;23.406;2023-05-08T04:47:29;10.13;;;6.00;;
3427;SDS011;1727;42.624;23.406;2023-05-08T04:49:56;8.57;;;4.60;;
3427;SDS011;1727;42.624;23.406;2023-05-08T04:52:23;7.47;;;5.90;;
3427;SDS011;1727;42.624;23.406;2023-05-08T04:54:50;6.67;;;6.07;;
3427;SDS011;1727;42.624;23.406;2023-05-08T04:57:16;7.00;;;6.03;;
3427;SDS011;1727;42.624;23.406;2023-05-08T04:59:43;6.40;;;5.80;;
3427;SDS011;1727;42.624;23.406;2023-05-08T05:02:14;7.67;;;6.97;;
3427;SDS011;1727;42.624;23.406;2023-05-08T05:04:41;8.33;;;7.10;;
3427;SDS011;1727;42.624;23.406;2023-05-08T05:07:08;9.37;;;6.90;;
3427;SDS011;1727;42.624;23.406;2023-05-08T05:09:34;7.60;;;6.90;;
3427;SDS011;1727;42.624;23.406;2023-05-08T05:12:03;9.23;;;5.97;;
3427;SDS011;1727;42.624;23.406;2023-05-08T05:14:30;7.70;;;6.30;;
3427;SDS011;1727;42.624;23.406;2023-05-08T05:16:57;6.70;;;6.10;;
3427;SDS011;1727;42.624;23.406;2023-05-08T05:19:25;12.20;;;6.10;;
3427;SDS011;1727;42.624;23.406;2023-05-08T05:21:52;13.10;;;6.40;;
3427;SDS011;1727;42.624;23.406;2023-05-08T05:24:19;8.17;;;5.90;;
3427;SDS011;1727;42.624;23.406;2023-05-08T05:26:46;8.20;;;6.20;;
3427;SDS011;1727;42.624;23.406;2023-05-08T05:29:12;5.80;;;4.90;;
3427;SDS011;1727;42.624;23.406;2023-05-08T05:31:39;6.40;;;5.80;;
3427;SDS011;1727;42.624;23.406;2023-05-08T05:34:06;6.23;;;5.37;;
3427;SDS011;1727;42.624;23.406;2023-05-08T05:36:34;6.17;;;5.57;;
3427;SDS011;1727;42.624;23.406;2023-05-08T05:39:01;5.87;;;5.03;;
3427;SDS011;1727;42.624;23.406;2023-05-08T05:41:28;6.07;;;5.00;;
3427;SDS011;1727;42.624;23.406;2023-05-08T05:43:55;6.30;;;4.93;;
3427;SDS011;1727;42.624;23.406;2023-05-08T05:46:22;7.27;;;4.90;;
3427;SDS011;1727;42.624;23.406;2023-05-08T05:48:52;6.97;;;5.47;;
3427;SDS011;1727;42.624;23.406;2023-05-08T05:51:18;6.17;;;5.13;;
3427;SDS011;1727;42.624;23.406;2023-05-08T05:53:47;8.23;;;5.37;;
3427;SDS011;1727;42.624;23.406;2023-05-08T05:56:13;7.60;;;5.67;;
3427;SDS011;1727;42.624;23.406;2023-05-08T05:58:40;5.97;;;5.47;;
3427;SDS011;1727;42.624;23.406;2023-05-08T06:01:09;6.80;;;6.10;;
3427;SDS011;1727;42.624;23.406;2023-05-08T06:03:36;7.00;;;4.70;;
3427;SDS011;1727;42.624;23.406;2023-05-08T06:06:02;5.97;;;5.40;;
3427;SDS011;1727;42.624;23.406;2023-05-08T06:08:29;6.73;;;5.43;;
3427;SDS011;1727;42.624;23.406;2023-05-08T06:10:57;11.80;;;5.80;;
3427;SDS011;1727;42.624;23.406;2023-05-08T06:13:24;9.00;;;5.80;;
3427;SDS011;1727;42.624;23.406;2023-05-08T06:15:52;7.10;;;5.30;;
3427;SDS011;1727;42.624;23.406;2023-05-08T06:18:20;9.80;;;5.23;;
3427;SDS011;1727;42.624;23.406;2023-05-08T06:20:47;8.83;;;5.50;;
3427;SDS011;1727;42.624;23.406;2023-05-08T06:23:14;9.40;;;5.43;;
3427;SDS011;1727;42.624;23.406;2023-05-08T06:25:40;6.40;;;4.80;;
3427;SDS011;1727;42.624;23.406;2023-05-08T06:28:08;5.50;;;5.00;;
3427;SDS011;1727;42.624;23.406;2023-05-08T06:30:35;5.40;;;4.87;;
3427;SDS011;1727;42.624;23.406;2023-05-08T06:33:02;5.30;;;4.80;;
3427;SDS011;1727;42.624;23.406;2023-05-08T06:35:29;8.17;;;5.20;;
3427;SDS011;1727;42.624;23.406;2023-05-08T06:37:56;6.10;;;5.50;;
3427;SDS011;1727;42.624;23.406;2023-05-08T06:40:22;10.43;;;5.60;;
3427;SDS011;1727;42.624;23.406;2023-05-08T06:42:50;14.50;;;9.85;;
3427;SDS011;1727;42.624;23.406;2023-05-08T06:45:18;5.47;;;4.97;;
3427;SDS011;1727;42.624;23.406;2023-05-08T06:47:45;5.97;;;5.10;;
3427;SDS011;1727;42.624;23.406;2023-05-08T06:50:12;5.07;;;4.57;;
3427;SDS011;1727;42.624;23.406;2023-05-08T06:52:38;5.10;;;4.70;;
3427;SDS011;1727;42.624;23.406;2023-05-08T06:55:06;5.10;;;4.30;;
3427;SDS011;1727;42.624;23.406;2023-05-08T06:57:34;6.10;;;5.50;;
3427;SDS011;1727;42.624;23.406;2023-05-08T07:00:01;7.63;;;5.83;;
3427;SDS011;1727;42.624;23.406;2023-05-08T07:02:29;9.53;;;4.97;;
3427;SDS011;1727;42.624;23.406;2023-05-08T07:04:56;6.13;;;4.87;;
3427;SDS011;1727;42.624;23.406;2023-05-08T07:07:23;14.50;;;7.97;;
3427;SDS011;1727;42.624;23.406;2023-05-08T07:09:49;20.77;;;11.20;;
3427;SDS011;1727;42.624;23.406;2023-05-08T07:12:16;15.90;;;6.63;;
3427;SDS011;1727;42.624;23.406;2023-05-08T07:14:43;5.93;;;5.37;;
3427;SDS011;1727;42.624;23.406;2023-05-08T07:17:10;8.80;;;5.87;;
3427;SDS011;1727;42.624;23.406;2023-05-08T07:19:38;6.47;;;5.87;;
3427;SDS011;1727;42.624;23.406;2023-05-08T07:22:05;6.43;;;5.33;;
3427;SDS011;1727;42.624;23.406;2023-05-08T07:24:32;7.57;;;5.80;;
3427;SDS011;1727;42.624;23.406;2023-05-08T07:26:59;9.13;;;5.97;;
3427;SDS011;1727;42.624;23.406;2023-05-08T07:29:26;13.20;;;6.37;;
3427;SDS011;1727;42.624;23.406;2023-05-08T07:31:53;7.03;;;6.00;;
3427;SDS011;1727;42.624;23.406;2023-05-08T07:34:19;6.00;;;5.40;;
3427;SDS011;1727;42.624;23.406;2023-05-08T07:36:48;6.13;;;5.57;;
3427;SDS011;1727;42.624;23.406;2023-05-08T07:39:14;9.63;;;6.00;;
3427;SDS011;1727;42.624;23.406;2023-05-08T07:41:41;10.63;;;7.23;;
3427;SDS011;1727;42.624;23.406;2023-05-08T07:44:09;11.37;;;7.33;;
3427;SDS011;1727;42.624;23.406;2023-05-08T07:46:36;9.70;;;7.70;;
3427;SDS011;1727;42.624;23.406;2023-05-08T07:49:03;10.07;;;6.80;;
3427;SDS011;1727;42.624;23.406;2023-05-08T07:51:30;11.40;;;7.87;;
3427;SDS011;1727;42.624;23.406;2023-05-08T07:53:58;12.37;;;7.60;;
3427;SDS011;1727;42.624;23.406;2023-05-08T07:56:25;10.73;;;7.40;;
3427;SDS011;1727;42.624;23.406;2023-05-08T07:58:52;13.20;;;7.97;;
3427;SDS011;1727;42.624;23.406;2023-05-08T08:01:19;11.03;;;7.40;;
3427;SDS011;1727;42.624;23.406;2023-05-08T08:03:46;9.23;;;8.30;;
3427;SDS011;1727;42.624;23.406;2023-05-08T08:06:12;12.90;;;9.03;;
3427;SDS011;1727;42.624;23.406;2023-05-08T08:08:39;9.13;;;8.23;;
3427;SDS011;1727;42.624;23.406;2023-05-08T08:11:07;10.90;;;8.90;;
3427;SDS011;1727;42.624;23.406;2023-05-08T08:13:34;10.03;;;8.77;;
3427;SDS011;1727;42.624;23.406;2023-05-08T08:16:01;11.80;;;8.00;;
3427;SDS011;1727;42.624;23.406;2023-05-08T08:18:29;9.10;;;8.00;;
3427;SDS011;1727;42.624;23.406;2023-05-08T08:20:55;14.17;;;8.97;;
3427;SDS011;1727;42.624;23.406;2023-05-08T08:23:23;14.93;;;8.53;;
3427;SDS011;1727;42.624;23.406;2023-05-08T08:25:50;10.40;;;8.00;;
3427;SDS011;1727;42.624;23.406;2023-05-08T08:28:19;15.63;;;8.50;;
3427;SDS011;1727;42.624;23.406;2023-05-08T08:30:46;22.30;;;12.00;;
3427;SDS011;1727;42.624;23.406;2023-05-08T08:33:13;9.07;;;8.27;;
3427;SDS011;1727;42.624;23.406;2023-05-08T08:35:40;11.90;;;7.93;;
3427;SDS011;1727;42.624;23.406;2023-05-08T08:38:07;10.27;;;9.27;;
3427;SDS011;1727;42.624;23.406;2023-05-08T08:40:37;12.33;;;8.43;;
3427;SDS011;1727;42.624;23.406;2023-05-08T08:43:04;11.93;;;8.07;;
3427;SDS011;1727;42.624;23.406;2023-05-08T08:45:32;9.07;;;8.27;;
3427;SDS011;1727;42.624;23.406;2023-05-08T08:48:00;12.30;;;8.93;;
3427;SDS011;1727;42.624;23.406;2023-05-08T08:50:28;10.07;;;7.70;;
3427;SDS011;1727;42.624;23.406;2023-05-08T08:53:00;10.10;;;7.73;;
3427;SDS011;1727;42.624;23.406;2023-05-08T08:55:32;11.20;;;9.87;;
3427;SDS011;1727;42.624;23.406;2023-05-08T08:58:06;11.63;;;7.10;;
3427;SDS011;1727;42.624;23.406;2023-05-08T09:00:41;11.37;;;7.10;;
3427;SDS011;1727;42.624;23.406;2023-05-08T09:03:08;9.70;;;8.17;;
3427;SDS011;1727;42.624;23.406;2023-05-08T09:05:35;10.00;;;7.77;;
3427;SDS011;1727;42.624;23.406;2023-05-08T09:08:02;10.13;;;7.23;;
3427;SDS011;1727;42.624;23.406;2023-05-08T09:10:31;15.37;;;8.73;;
3427;SDS011;1727;42.624;23.406;2023-05-08T09:12:58;13.60;;;7.33;;
3427;SDS011;1727;42.624;23.406;2023-05-08T09:15:24;9.93;;;8.37;;
3427;SDS011;1727;42.624;23.406;2023-05-08T09:17:53;8.40;;;6.37;;
3427;SDS011;1727;42.624;23.406;2023-05-08T09:20:19;32.60;;;9.90;;
3427;SDS011;1727;42.624;23.406;2023-05-08T09:22:46;10.43;;;8.00;;
3427;SDS011;1727;42.624;23.406;2023-05-08T09:25:14;12.80;;;8.37;;
3427;SDS011;1727;42.624;23.406;2023-05-08T09:27:43;10.43;;;7.50;;
3427;SDS011;1727;42.624;23.406;2023-05-08T09:30:10;10.00;;;6.60;;
3427;SDS011;1727;42.624;23.406;2023-05-08T09:32:39;11.73;;;8.40;;
3427;SDS011;1727;42.624;23.406;2023-05-08T09:35:09;10.30;;;7.13;;
3427;SDS011;1727;42.624;23.406;2023-05-08T09:37:36;12.93;;;8.03;;
3427;SDS011;1727;42.624;23.406;2023-05-08T09:40:11;15.60;;;7.60;;
3427;SDS011;1727;42.624;23.406;2023-05-08T09:42:39;14.97;;;7.43;;
3427;SDS011;1727;42.624;23.406;2023-05-08T09:45:07;8.60;;;7.53;;
3427;SDS011;1727;42.624;23.406;2023-05-08T09:47:34;10.27;;;7.40;;
3427;SDS011;1727;42.624;23.406;2023-05-08T09:50:04;21.13;;;7.87;;
3427;SDS011;1727;42.624;23.406;2023-05-08T09:52:34;16.37;;;9.07;;
3427;SDS011;1727;42.624;23.406;2023-05-08T09:55:02;9.33;;;8.13;;
3427;SDS011;1727;42.624;23.406;2023-05-08T09:57:31;10.47;;;7.23;;
3427;SDS011;1727;42.624;23.406;2023-05-08T10:00:00;8.90;;;7.60;;
3427;SDS011;1727;42.624;23.406;2023-05-08T10:02:30;19.23;;;7.80;;
3427;SDS011;1727;42.624;23.406;2023-05-08T10:04:57;13.80;;;7.47;;
3427;SDS011;1727;42.624;23.406;2023-05-08T10:07:30;16.37;;;7.70;;
3427;SDS011;1727;42.624;23.406;2023-05-08T10:10:03;14.50;;;7.00;;
3427;SDS011;1727;42.624;23.406;2023-05-08T10:12:31;9.10;;;6.30;;
3427;SDS011;1727;42.624;23.406;2023-05-08T10:14:58;7.20;;;6.60;;
3427;SDS011;1727;42.624;23.406;2023-05-08T10:17:26;7.47;;;6.77;;
3427;SDS011;1727;42.624;23.406;2023-05-08T10:19:57;8.40;;;7.60;;
3427;SDS011;1727;42.624;23.406;2023-05-08T10:22:25;11.80;;;7.43;;
3427;SDS011;1727;42.624;23.406;2023-05-08T10:24:54;9.30;;;7.67;;
3427;SDS011;1727;42.624;23.406;2023-05-08T10:27:27;7.63;;;6.93;;
3427;SDS011;1727;42.624;23.406;2023-05-08T10:30:00;11.00;;;7.90;;
3427;SDS011;1727;42.624;23.406;2023-05-08T10:32:30;8.13;;;7.40;;
3427;SDS011;1727;42.624;23.406;2023-05-08T10:35:04;10.00;;;8.33;;
3427;SDS011;1727;42.624;23.406;2023-05-08T10:37:35;11.23;;;7.43;;
3427;SDS011;1727;42.624;23.406;2023-05-08T10:40:01;12.23;;;8.37;;
3427;SDS011;1727;42.624;23.406;2023-05-08T10:42:31;10.30;;;7.80;;
3427;SDS011;1727;42.624;23.406;2023-05-08T10:44:59;16.30;;;7.70;;
3427;SDS011;1727;42.624;23.406;2023-05-08T10:47:28;14.57;;;8.40;;
3427;SDS011;1727;42.624;23.406;2023-05-08T10:49:59;18.00;;;8.23;;
3427;SDS011;1727;42.624;23.406;2023-05-08T10:52:32;10.80;;;7.90;;
3427;SDS011;1727;42.624;23.406;2023-05-08T10:55:18;12.83;;;8.13;;
3427;SDS011;1727;42.624;23.406;2023-05-08T10:58:02;9.30;;;8.10;;
3427;SDS011;1727;42.624;23.406;2023-05-08T11:00:31;10.57;;;7.10;;
3427;SDS011;1727;42.624;23.406;2023-05-08T11:03:05;11.07;;;8.50;;
3427;SDS011;1727;42.624;23.406;2023-05-08T11:05:43;10.23;;;7.97;;
3427;SDS011;1727;42.624;23.406;2023-05-08T11:08:13;7.90;;;7.10;;
3427;SDS011;1727;42.624;23.406;2023-05-08T11:10:40;7.53;;;6.83;;
3427;SDS011;1727;42.624;23.406;2023-05-08T11:13:10;9.13;;;7.60;;
3427;SDS011;1727;42.624;23.406;2023-05-08T11:15:41;12.37;;;7.40;;
3427;SDS011;1727;42.624;23.406;2023-05-08T11:18:15;8.10;;;6.80;;
3427;SDS011;1727;42.624;23.406;2023-05-08T11:20:53;9.77;;;7.03;;
3427;SDS011;1727;42.624;23.406;2023-05-08T11:23:22;10.60;;;7.57;;
3427;SDS011;1727;42.624;23.406;2023-05-08T11:25:57;10.73;;;7.50;;
3427;SDS011;1727;42.624;23.406;2023-05-08T11:28:27;8.10;;;6.87;;
3427;SDS011;1727;42.624;23.406;2023-05-08T11:31:00;9.73;;;7.73;;
3427;SDS011;1727;42.624;23.406;2023-05-08T11:33:28;12.00;;;8.20;;
3427;SDS011;1727;42.624;23.406;2023-05-08T11:35:56;69.53;;;12.33;;
3427;SDS011;1727;42.624;23.406;2023-05-08T11:38:25;10.17;;;7.10;;
3427;SDS011;1727;42.624;23.406;2023-05-08T11:40:54;16.10;;;7.07;;
3427;SDS011;1727;42.624;23.406;2023-05-08T11:43:33;8.97;;;8.17;;
3427;SDS011;1727;42.624;23.406;2023-05-08T11:46:20;8.33;;;7.13;;
3427;SDS011;1727;42.624;23.406;2023-05-08T11:48:47;11.90;;;7.70;;
3427;SDS011;1727;42.624;23.406;2023-05-08T11:51:16;21.90;;;9.70;;
3427;SDS011;1727;42.624;23.406;2023-05-08T11:53:44;10.80;;;6.80;;
3427;SDS011;1727;42.624;23.406;2023-05-08T11:56:12;10.73;;;7.63;;
3427;SDS011;1727;42.624;23.406;2023-05-08T11:58:40;12.03;;;7.13;;
3427;SDS011;1727;42.624;23.406;2023-05-08T12:01:07;10.30;;;7.53;;
3427;SDS011;1727;42.624;23.406;2023-05-08T12:03:34;13.57;;;7.07;;
3427;SDS011;1727;42.624;23.406;2023-05-08T12:06:01;8.67;;;7.97;;
3427;SDS011;1727;42.624;23.406;2023-05-08T12:08:27;12.20;;;7.43;;
3427;SDS011;1727;42.624;23.406;2023-05-08T12:10:56;10.07;;;7.00;;
3427;SDS011;1727;42.624;23.406;2023-05-08T12:13:23;12.43;;;7.53;;
3427;SDS011;1727;42.624;23.406;2023-05-08T12:15:52;7.60;;;6.90;;
3427;SDS011;1727;42.624;23.406;2023-05-08T12:18:21;8.13;;;7.20;;
3427;SDS011;1727;42.624;23.406;2023-05-08T12:20:52;8.30;;;7.50;;
3427;SDS011;1727;42.624;23.406;2023-05-08T12:23:21;7.73;;;6.93;;
3427;SDS011;1727;42.624;23.406;2023-05-08T12:25:50;8.00;;;7.20;;
3427;SDS011;1727;42.624;23.406;2023-05-08T12:28:18;11.77;;;6.60;;
3427;SDS011;1727;42.624;23.406;2023-05-08T12:30:45;8.80;;;7.90;;
3427;SDS011;1727;42.624;23.406;2023-05-08T12:33:14;21.67;;;8.40;;
3427;SDS011;1727;42.624;23.406;2023-05-08T12:35:41;14.27;;;7.83;;
3427;SDS011;1727;42.624;23.406;2023-05-08T12:38:09;8.63;;;6.70;;
3427;SDS011;1727;42.624;23.406;2023-05-08T12:40:39;11.10;;;7.60;;
3427;SDS011;1727;42.624;23.406;2023-05-08T12:43:07;8.10;;;7.30;;
3427;SDS011;1727;42.624;23.406;2023-05-08T12:45:35;7.20;;;6.50;;
3427;SDS011;1727;42.624;23.406;2023-05-08T12:48:04;8.00;;;7.20;;
3427;SDS011;1727;42.624;23.406;2023-05-08T12:50:34;7.67;;;7.00;;
3427;SDS011;1727;42.624;23.406;2023-05-08T12:53:02;9.87;;;6.80;;
3427;SDS011;1727;42.624;23.406;2023-05-08T12:55:30;17.80;;;7.70;;
3427;SDS011;1727;42.624;23.406;2023-05-08T12:58:00;19.67;;;9.57;;
3427;SDS011;1727;42.624;23.406;2023-05-08T13:00:34;9.00;;;8.00;;
3427;SDS011;1727;42.624;23.406;2023-05-08T13:03:03;14.47;;;9.50;;
3427;SDS011;1727;42.624;23.406;2023-05-08T13:05:30;10.03;;;8.87;;
3427;SDS011;1727;42.624;23.406;2023-05-08T13:08:02;10.13;;;9.10;;
3427;SDS011;1727;42.624;23.406;2023-05-08T13:10:43;11.73;;;9.20;;
3427;SDS011;1727;42.624;23.406;2023-05-08T13:13:11;12.60;;;9.00;;
3427;SDS011;1727;42.624;23.406;2023-05-08T13:15:38;11.47;;;10.37;;
3427;SDS011;1727;42.624;23.406;2023-05-08T13:18:04;17.63;;;9.53;;
3427;SDS011;1727;42.624;23.406;2023-05-08T13:20:32;9.93;;;6.97;;
3427;SDS011;1727;42.624;23.406;2023-05-08T13:22:59;7.80;;;6.20;;
3427;SDS011;1727;42.624;23.406;2023-05-08T13:25:27;5.80;;;5.33;;
3427;SDS011;1727;42.624;23.406;2023-05-08T13:27:55;7.47;;;5.97;;
3427;SDS011;1727;42.624;23.406;2023-05-08T13:30:23;10.53;;;6.10;;
3427;SDS011;1727;42.624;23.406;2023-05-08T13:32:50;8.17;;;6.80;;
3427;SDS011;1727;42.624;23.406;2023-05-08T13:35:18;10.10;;;6.20;;
3427;SDS011;1727;42.624;23.406;2023-05-08T13:37:46;6.83;;;6.23;;
3427;SDS011;1727;42.624;23.406;2023-05-08T13:40:13;7.13;;;6.43;;
3427;SDS011;1727;42.624;23.406;2023-05-08T13:42:42;13.63;;;6.33;;
3427;SDS011;1727;42.624;23.406;2023-05-08T13:45:09;9.07;;;7.03;;
3427;SDS011;1727;42.624;23.406;2023-05-08T13:47:38;8.93;;;5.30;;
3427;SDS011;1727;42.624;23.406;2023-05-08T13:50:05;6.93;;;6.10;;
3427;SDS011;1727;42.624;23.406;2023-05-08T13:52:33;10.80;;;6.07;;
3427;SDS011;1727;42.624;23.406;2023-05-08T13:55:00;9.63;;;6.10;;
3427;SDS011;1727;42.624;23.406;2023-05-08T14:04:12;9.07;;;8.00;;
3427;SDS011;1727;42.624;23.406;2023-05-08T14:06:38;11.73;;;9.70;;
3427;SDS011;1727;42.624;23.406;2023-05-08T14:09:05;7.40;;;6.70;;
3427;SDS011;1727;42.624;23.406;2023-05-08T14:11:32;11.47;;;6.90;;
3427;SDS011;1727;42.624;23.406;2023-05-08T14:13:59;7.93;;;7.10;;
3427;SDS011;1727;42.624;23.406;2023-05-08T14:16:26;17.47;;;7.17;;
3427;SDS011;1727;42.624;23.406;2023-05-08T14:18:53;7.90;;;7.10;;
3427;SDS011;1727;42.624;23.406;2023-05-08T14:21:21;12.60;;;7.37;;
3427;SDS011;1727;42.624;23.406;2023-05-08T14:23:48;8.93;;;7.67;;
3427;SDS011;1727;42.624;23.406;2023-05-08T14:26:15;17.67;;;7.47;;
3427;SDS011;1727;42.624;23.406;2023-05-08T14:28:42;8.23;;;7.00;;
3427;SDS011;1727;42.624;23.406;2023-05-08T14:31:08;11.47;;;6.67;;
3427;SDS011;1727;42.624;23.406;2023-05-08T14:33:35;9.40;;;6.93;;
3427;SDS011;1727;42.624;23.406;2023-05-08T14:36:02;8.50;;;7.63;;
3427;SDS011;1727;42.624;23.406;2023-05-08T14:38:30;10.93;;;9.33;;
3427;SDS011;1727;42.624;23.406;2023-05-08T14:40:57;8.50;;;7.70;;
3427;SDS011;1727;42.624;23.406;2023-05-08T14:43:24;11.53;;;7.67;;
3427;SDS011;1727;42.624;23.406;2023-05-08T14:45:50;8.30;;;6.50;;
3427;SDS011;1727;42.624;23.406;2023-05-08T14:48:17;14.17;;;7.33;;
3427;SDS011;1727;42.624;23.406;2023-05-08T14:50:44;14.05;;;8.23;;
3427;SDS011;1727;42.624;23.406;2023-05-08T14:53:11;10.63;;;7.53;;
3427;SDS011;1727;42.624;23.406;2023-05-08T14:55:39;14.03;;;5.87;;
3427;SDS011;1727;42.624;23.406;2023-05-08T14:58:06;7.80;;;6.40;;
3427;SDS011;1727;42.624;23.406;2023-05-08T15:00:32;9.33;;;6.43;;
3427;SDS011;1727;42.624;23.406;2023-05-08T15:02:59;5.50;;;5.00;;
3427;SDS011;1727;42.624;23.406;2023-05-08T15:05:26;6.17;;;5.60;;
3427;SDS011;1727;42.624;23.406;2023-05-08T15:07:53;6.80;;;5.70;;
3427;SDS011;1727;42.624;23.406;2023-05-08T15:10:20;6.73;;;6.13;;
3427;SDS011;1727;42.624;23.406;2023-05-08T15:12:48;8.17;;;5.30;;
3427;SDS011;1727;42.624;23.406;2023-05-08T15:15:15;4.87;;;4.40;;
3427;SDS011;1727;42.624;23.406;2023-05-08T15:17:42;6.00;;;5.40;;
3427;SDS011;1727;42.624;23.406;2023-05-08T15:20:09;4.57;;;4.17;;
3427;SDS011;1727;42.624;23.406;2023-05-08T15:22:36;4.40;;;4.00;;